PWSweather.com
Personal Weather Stations
Station Observations

BunburyAU

Lat: -33.378333, Lon: 115.651667

Elevation: 65

Station Type: Oregon Scientific WMR88

http://www.collegegrove.info

Latest ConditionsUpdated 8:15:01 AM GMT+08:08 Monday, Jan 23, 2017
Currently Today's Max Today's Min Today's Average
Temperature 63.7°F17.6°C 64.8°F18.2°C 58.1°F14.5°C 61.0°F16.1°C
Dew Point 50.4°F10.2°C 50.4°F10.2°C 43.7°F6.5°C 45.5°F7.5°C
Winds 1.6 mph SW2.6 kmh SW 2.5 mph SE4.0 kmh SE - 0.3 mph 0.5 kmh
Wind Gusts 2.7 mph4.3 kmh 3.6 mph5.8 kmh - -
Humidity 62% 66% 50% 57%
Pressure 30.04 in1017.3 mb 30.04 in1017.3 mb 29.95 in1014.2 mb -
Hour Temp Dew Point Humidity Winds Wind Gusts Pressure Precip Precip Rate Daily Precip Total
08:15 AM 63.7°F17.6°C 50.4°F10.2°C 62% 1.6 mph SW2.6 kmh SW 2.7 mph4.3 kmh 30.04 in1017.3 mb 0.00 in0.0 mm 0.00 in0.0 mm 0.00 in0.0 mm
08:00 AM 62.6°F17.0°C 50.2°F10.1°C 64% 2.5 mph SE4.0 kmh SE 3.6 mph5.8 kmh 30.04 in1017.3 mb 0.00 in0.0 mm 0.00 in0.0 mm 0.00 in0.0 mm
07:45 AM 61.3°F16.3°C 49.9°F9.9°C 66% 1.6 mph ESE2.6 kmh ESE 3.4 mph5.5 kmh 30.04 in1017.3 mb 0.00 in0.0 mm 0.00 in0.0 mm 0.00 in0.0 mm
07:30 AM 60.4°F15.8°C 49.0°F9.4°C 66% 0.9 mph SE1.4 kmh SE 2.9 mph4.7 kmh 30.04 in1017.3 mb 0.00 in0.0 mm 0.00 in0.0 mm 0.00 in0.0 mm
07:15 AM 59.9°F15.5°C 48.1°F8.9°C 65% 1.1 mph ESE1.8 kmh ESE 2.7 mph4.3 kmh 30.04 in1017.3 mb 0.00 in0.0 mm 0.00 in0.0 mm 0.00 in0.0 mm
07:00 AM 59.2°F15.1°C 47.0°F8.3°C 64% 0.5 mph SSE0.8 kmh SSE 2.2 mph3.5 kmh 30.04 in1017.3 mb 0.00 in0.0 mm 0.00 in0.0 mm 0.00 in0.0 mm
06:45 AM 59.0°F15.0°C 46.4°F8.0°C 63% 0.8 mph SE1.3 kmh SE 2.2 mph3.5 kmh 30.01 in1016.3 mb 0.00 in0.0 mm 0.00 in0.0 mm 0.00 in0.0 mm
06:30 AM 58.6°F14.8°C 45.7°F7.6°C 62% 0.1 mph SSE0.2 kmh SSE 1.3 mph2.1 kmh 30.01 in1016.3 mb 0.00 in0.0 mm 0.00 in0.0 mm 0.00 in0.0 mm
06:15 AM 58.3°F14.6°C 44.9°F7.2°C 61% Calm Calm -- 30.01 in1016.3 mb 0.00 in0.0 mm 0.00 in0.0 mm 0.00 in0.0 mm
06:00 AM 58.1°F14.5°C 44.3°F6.8°C 60% Calm Calm -- 30.01 in1016.3 mb 0.00 in0.0 mm 0.00 in0.0 mm 0.00 in0.0 mm
05:45 AM 58.1°F14.5°C 43.8°F6.6°C 59% Calm Calm -- 29.98 in1015.2 mb 0.00 in0.0 mm 0.00 in0.0 mm 0.00 in0.0 mm
05:30 AM 58.3°F14.6°C 44.0°F6.7°C 59% Calm Calm -- 29.98 in1015.2 mb 0.00 in0.0 mm 0.00 in0.0 mm 0.00 in0.0 mm
05:15 AM 58.5°F14.7°C 43.7°F6.5°C 58% Calm Calm -- 29.98 in1015.2 mb 0.00 in0.0 mm 0.00 in0.0 mm 0.00 in0.0 mm
05:00 AM 58.8°F14.9°C 44.1°F6.7°C 58% Calm Calm -- 29.98 in1015.2 mb 0.00 in0.0 mm 0.00 in0.0 mm 0.00 in0.0 mm
04:45 AM 59.0°F15.0°C 43.8°F6.6°C 57% Calm Calm -- 29.98 in1015.2 mb 0.00 in0.0 mm 0.00 in0.0 mm 0.00 in0.0 mm
04:30 AM 59.2°F15.1°C 43.9°F6.6°C 57% Calm Calm -- 29.95 in1014.2 mb 0.00 in0.0 mm 0.00 in0.0 mm 0.00 in0.0 mm
04:15 AM 59.7°F15.4°C 44.5°F6.9°C 57% 0.1 mph SE0.2 kmh SE 1.6 mph2.6 kmh 29.95 in1014.2 mb 0.00 in0.0 mm 0.00 in0.0 mm 0.00 in0.0 mm
04:00 AM 59.9°F15.5°C 44.2°F6.8°C 56% Calm Calm -- 29.95 in1014.2 mb 0.00 in0.0 mm 0.00 in0.0 mm 0.00 in0.0 mm
03:45 AM 60.3°F15.7°C 44.5°F6.9°C 56% Calm Calm -- 29.95 in1014.2 mb 0.00 in0.0 mm 0.00 in0.0 mm 0.00 in0.0 mm
03:30 AM 60.4°F15.8°C 44.7°F7.1°C 56% Calm Calm -- 29.95 in1014.2 mb 0.00 in0.0 mm 0.00 in0.0 mm 0.00 in0.0 mm
03:15 AM 60.8°F16.0°C 44.5°F6.9°C 55% Calm Calm -- 29.95 in1014.2 mb 0.00 in0.0 mm 0.00 in0.0 mm 0.00 in0.0 mm
03:00 AM 61.0°F16.1°C 44.2°F6.8°C 54% Calm Calm -- 29.95 in1014.2 mb 0.00 in0.0 mm 0.00 in0.0 mm 0.00 in0.0 mm
02:45 AM 61.3°F16.3°C 44.1°F6.7°C 53% Calm Calm -- 29.95 in1014.2 mb 0.00 in0.0 mm 0.00 in0.0 mm 0.00 in0.0 mm
02:30 AM 61.7°F16.5°C 44.4°F6.9°C 53% Calm Calm -- 29.95 in1014.2 mb 0.00 in0.0 mm 0.00 in0.0 mm 0.00 in0.0 mm
02:15 AM 62.2°F16.8°C 44.9°F7.2°C 53% Calm Calm -- 29.95 in1014.2 mb 0.00 in0.0 mm 0.00 in0.0 mm 0.00 in0.0 mm
02:00 AM 62.6°F17.0°C 44.7°F7.1°C 52% Calm Calm -- 29.95 in1014.2 mb 0.00 in0.0 mm 0.00 in0.0 mm 0.00 in0.0 mm
01:45 AM 63.0°F17.2°C 45.1°F7.3°C 52% Calm Calm -- 29.95 in1014.2 mb 0.00 in0.0 mm 0.00 in0.0 mm 0.00 in0.0 mm
01:30 AM 63.3°F17.4°C 45.4°F7.4°C 52% Calm Calm -- 29.95 in1014.2 mb 0.00 in0.0 mm 0.00 in0.0 mm 0.00 in0.0 mm
01:15 AM 63.9°F17.7°C 45.4°F7.4°C 51% Calm Calm -- 29.95 in1014.2 mb 0.00 in0.0 mm 0.00 in0.0 mm 0.00 in0.0 mm
01:00 AM 64.2°F17.9°C 45.7°F7.6°C 51% 0.2 mph SSE0.3 kmh SSE 1.1 mph1.8 kmh 29.95 in1014.2 mb 0.00 in0.0 mm 0.00 in0.0 mm 0.00 in0.0 mm
12:45 AM 64.2°F17.9°C 45.7°F7.6°C 51% 0.1 mph SSE0.2 kmh SSE 1.1 mph1.8 kmh 29.95 in1014.2 mb 0.00 in0.0 mm 0.00 in0.0 mm 0.00 in0.0 mm
12:30 AM 64.2°F17.9°C 45.7°F7.6°C 51% Calm Calm -- 29.95 in1014.2 mb 0.00 in0.0 mm 0.00 in0.0 mm 0.00 in0.0 mm
12:15 AM 64.4°F18.0°C 45.3°F7.4°C 50% Calm Calm -- 29.95 in1014.2 mb 0.00 in0.0 mm 0.00 in0.0 mm 0.00 in0.0 mm
12:00 AM 64.8°F18.2°C 45.7°F7.6°C 50% Calm Calm -- 29.95 in1014.2 mb 0.00 in0.0 mm 0.00 in0.0 mm 0.00 in0.0 mm